createdAt,value
2023-02-16T00:01:24.083Z,70.61
2023-02-16T00:03:53.052Z,70.53
2023-02-16T00:06:21.712Z,70.60
2023-02-16T00:08:50.929Z,70.64
2023-02-16T00:11:39.037Z,70.67
2023-02-16T00:14:08.610Z,70.79
2023-02-16T00:16:37.078Z,70.88
2023-02-16T00:19:31.008Z,70.91
2023-02-16T00:21:59.632Z,71.05
2023-02-16T00:24:28.229Z,71.12
2023-02-16T00:26:56.746Z,71.22
2023-02-16T00:29:24.656Z,71.23
2023-02-16T00:31:53.426Z,71.20
2023-02-16T00:34:21.467Z,71.36
2023-02-16T00:36:49.759Z,71.35
2023-02-16T00:39:17.758Z,71.43
2023-02-16T00:41:51.489Z,71.39
2023-02-16T00:44:19.510Z,71.53
2023-02-16T00:46:47.689Z,71.50
2023-02-16T00:49:20.457Z,71.60
2023-02-16T00:51:49.435Z,71.69
2023-02-16T00:54:17.335Z,71.82
2023-02-16T00:56:46.121Z,71.96
2023-02-16T00:59:16.660Z,72.09
2023-02-16T01:01:44.829Z,72.06
2023-02-16T01:04:20.026Z,72.18
2023-02-16T01:07:06.665Z,72.21
2023-02-16T01:09:54.100Z,72.25
2023-02-16T01:12:23.018Z,72.38
2023-02-16T01:14:52.720Z,72.37
2023-02-16T01:17:20.660Z,72.49
2023-02-16T01:19:48.876Z,72.45
2023-02-16T01:22:17.383Z,72.39
2023-02-16T01:24:45.185Z,72.40
2023-02-16T01:27:13.944Z,72.43
2023-02-16T01:29:42.024Z,72.42
2023-02-16T01:32:11.082Z,72.40
2023-02-16T01:34:39.667Z,72.38
2023-02-16T01:37:13.739Z,72.33
2023-02-16T01:39:44.744Z,72.18
2023-02-16T01:42:23.565Z,72.13
2023-02-16T01:44:52.716Z,71.98
2023-02-16T01:47:29.776Z,71.97
2023-02-16T01:50:03.458Z,71.92
2023-02-16T01:52:37.912Z,71.72
2023-02-16T01:55:12.700Z,71.78
2023-02-16T01:57:45.841Z,71.79
2023-02-16T02:00:33.104Z,71.80
2023-02-16T02:03:22.665Z,71.97
2023-02-16T02:05:51.853Z,71.95
2023-02-16T02:08:22.693Z,72.06
2023-02-16T02:10:53.827Z,72.08
2023-02-16T02:13:26.616Z,72.07
2023-02-16T02:15:57.119Z,72.26
2023-02-16T02:18:25.602Z,72.44
2023-02-16T02:21:27.678Z,72.53
2023-02-16T02:24:05.845Z,72.52
2023-02-16T02:26:35.375Z,72.66
2023-02-16T02:29:15.520Z,72.80
2023-02-16T02:31:47.046Z,72.93
2023-02-16T02:34:24.186Z,73.06
2023-02-16T02:37:00.537Z,73.23
2023-02-16T02:39:34.512Z,73.28
2023-02-16T02:42:05.819Z,73.30
2023-02-16T02:44:44.353Z,73.18
2023-02-16T02:47:13.065Z,73.18
2023-02-16T02:49:42.162Z,73.03
2023-02-16T02:52:11.119Z,72.94
2023-02-16T02:54:59.792Z,72.83
2023-02-16T02:57:49.163Z,72.51
2023-02-16T03:00:44.155Z,72.33
2023-02-16T03:03:24.533Z,72.21
2023-02-16T03:05:55.201Z,72.17
2023-02-16T03:08:24.574Z,72.15
2023-02-16T03:11:15.731Z,71.96
2023-02-16T03:13:46.819Z,71.97
2023-02-16T03:16:20.196Z,71.97
2023-02-16T03:19:07.000Z,72.04
2023-02-16T03:21:53.979Z,72.16
2023-02-16T03:24:43.165Z,72.23
2023-02-16T03:27:30.880Z,72.34
2023-02-16T03:30:00.451Z,72.45
2023-02-16T03:32:28.302Z,72.55
2023-02-16T03:34:56.143Z,72.60
2023-02-16T03:37:24.270Z,72.52
2023-02-16T03:40:10.771Z,72.46
2023-02-16T03:42:38.850Z,72.53
2023-02-16T03:45:07.298Z,72.45
2023-02-16T03:47:35.060Z,72.53
2023-02-16T03:50:02.860Z,72.52
2023-02-16T03:52:30.639Z,72.62
2023-02-16T03:54:58.368Z,72.68
2023-02-16T03:57:26.214Z,72.75
2023-02-16T03:59:54.399Z,72.64
2023-02-16T04:02:22.568Z,72.49
2023-02-16T04:04:50.406Z,72.48
2023-02-16T04:07:18.130Z,72.36
2023-02-16T04:09:46.342Z,72.29
2023-02-16T04:12:33.101Z,72.16
2023-02-16T04:15:01.371Z,72.15
2023-02-16T04:17:29.383Z,72.01
2023-02-16T04:19:57.183Z,71.82
2023-02-16T04:22:25.135Z,71.74
2023-02-16T04:24:53.087Z,71.64
2023-02-16T04:27:21.002Z,71.45
2023-02-16T04:29:48.808Z,71.37
2023-02-16T04:32:16.749Z,71.31
2023-02-16T04:34:44.611Z,71.23
2023-02-16T04:37:12.844Z,71.22
2023-02-16T04:39:40.699Z,71.38
2023-02-16T04:42:08.516Z,71.34
2023-02-16T04:44:36.681Z,71.62
2023-02-16T04:47:04.667Z,71.64
2023-02-16T04:49:33.256Z,71.83
2023-02-16T04:52:01.223Z,71.84
2023-02-16T04:54:28.990Z,71.91
2023-02-16T04:56:56.943Z,71.88
2023-02-16T04:59:24.739Z,71.82
2023-02-16T05:01:53.354Z,71.96
2023-02-16T05:04:21.427Z,71.92
2023-02-16T05:06:49.372Z,71.98
2023-02-16T05:09:17.681Z,72.14
2023-02-16T05:12:04.921Z,72.30
2023-02-16T05:14:43.358Z,72.46
2023-02-16T05:17:22.223Z,72.32
2023-02-16T05:19:51.524Z,72.43
2023-02-16T05:22:19.770Z,72.51
2023-02-16T05:24:47.835Z,72.60
2023-02-16T05:27:18.316Z,72.54
2023-02-16T05:29:46.314Z,72.46
2023-02-16T05:32:14.281Z,72.56
2023-02-16T05:34:44.708Z,72.53
2023-02-16T05:37:13.643Z,72.61
2023-02-16T05:39:41.947Z,72.66
2023-02-16T05:42:09.883Z,72.65
2023-02-16T05:44:38.212Z,72.74
2023-02-16T05:47:06.352Z,72.83
2023-02-16T05:49:34.583Z,72.89
2023-02-16T05:52:02.357Z,72.92
2023-02-16T05:54:30.286Z,72.81
2023-02-16T05:56:58.506Z,72.88
2023-02-16T05:59:26.319Z,72.77
2023-02-16T06:01:54.126Z,72.73
2023-02-16T06:04:23.443Z,72.64
2023-02-16T06:06:52.060Z,72.57
2023-02-16T06:09:20.253Z,72.47
2023-02-16T06:11:48.065Z,72.51
2023-02-16T06:14:18.002Z,72.41
2023-02-16T06:16:47.410Z,72.41
2023-02-16T06:19:17.544Z,72.29
2023-02-16T06:21:45.439Z,72.16
2023-02-16T06:24:13.899Z,72.25
2023-02-16T06:26:42.282Z,72.10
2023-02-16T06:29:10.759Z,71.98
2023-02-16T06:31:38.769Z,71.90
2023-02-16T06:34:06.981Z,71.93
2023-02-16T06:36:35.365Z,71.83
2023-02-16T06:39:03.373Z,71.73
2023-02-16T06:41:31.884Z,71.72
2023-02-16T06:44:01.176Z,71.82
2023-02-16T06:46:29.114Z,71.78
2023-02-16T06:48:57.033Z,71.80
2023-02-16T06:51:25.025Z,71.55
2023-02-16T06:53:52.841Z,71.57
2023-02-16T06:56:21.024Z,71.45
2023-02-16T06:58:49.441Z,71.52
2023-02-16T07:01:22.981Z,71.43
2023-02-16T07:03:52.413Z,71.21
2023-02-16T07:06:21.107Z,71.04
2023-02-16T07:08:49.090Z,70.92
2023-02-16T07:11:17.712Z,70.87
2023-02-16T07:13:45.862Z,70.78
2023-02-16T07:16:14.764Z,70.65
2023-02-16T07:18:42.786Z,70.62
2023-02-16T07:21:11.041Z,70.49
2023-02-16T07:23:38.835Z,70.11
2023-02-16T07:26:06.880Z,69.88
2023-02-16T07:28:35.053Z,69.68
2023-02-16T07:31:08.133Z,69.73
2023-02-16T07:33:36.134Z,69.71
2023-02-16T07:36:04.041Z,69.51
2023-02-16T07:38:31.883Z,69.52
2023-02-16T07:40:59.785Z,69.64
2023-02-16T07:43:27.933Z,69.59
2023-02-16T07:45:56.036Z,69.52
2023-02-16T07:48:23.896Z,69.43
2023-02-16T07:50:51.775Z,69.20
2023-02-16T07:53:19.864Z,69.07
2023-02-16T07:55:47.756Z,69.00
2023-02-16T07:58:27.249Z,69.11
2023-02-16T08:00:56.097Z,69.07
2023-02-16T08:03:24.371Z,68.97
2023-02-16T08:05:52.220Z,68.86
2023-02-16T08:08:20.168Z,68.70
2023-02-16T08:10:48.653Z,68.53
2023-02-16T08:13:16.680Z,68.71
2023-02-16T08:15:44.989Z,68.61
2023-02-16T08:18:13.128Z,68.53
2023-02-16T08:21:01.354Z,68.49
2023-02-16T08:23:29.609Z,68.51
2023-02-16T08:25:59.253Z,68.35
2023-02-16T08:28:28.917Z,68.34
2023-02-16T08:30:57.103Z,68.31
2023-02-16T08:33:25.408Z,68.46
2023-02-16T08:35:53.430Z,68.54
2023-02-16T08:38:21.327Z,68.47
2023-02-16T08:40:49.670Z,68.27
2023-02-16T08:43:17.590Z,68.12
2023-02-16T08:45:47.823Z,68.04
2023-02-16T08:48:16.715Z,67.85
2023-02-16T08:50:53.918Z,67.81
2023-02-16T08:53:23.279Z,67.83
2023-02-16T08:55:52.201Z,67.82
2023-02-16T08:58:19.975Z,67.96
2023-02-16T09:00:48.387Z,67.97
2023-02-16T09:03:18.981Z,68.10
2023-02-16T09:05:47.888Z,68.15
2023-02-16T09:08:16.210Z,68.29
2023-02-16T09:10:44.243Z,68.45
2023-02-16T09:13:15.137Z,68.46
2023-02-16T09:15:44.016Z,68.47
2023-02-16T09:18:14.850Z,68.57
2023-02-16T09:20:46.658Z,68.68
2023-02-16T09:23:14.695Z,68.62
2023-02-16T09:25:43.055Z,68.67
2023-02-16T09:28:11.290Z,68.14
2023-02-16T09:30:39.647Z,67.84
2023-02-16T09:33:08.060Z,67.60
2023-02-16T09:35:38.584Z,67.49
2023-02-16T09:38:08.215Z,67.46
2023-02-16T09:40:36.774Z,67.43
2023-02-16T09:43:05.015Z,67.31
2023-02-16T09:45:39.458Z,67.12
2023-02-16T09:48:12.631Z,67.09
2023-02-16T09:50:53.281Z,67.16
2023-02-16T09:53:24.708Z,67.02
2023-02-16T09:55:58.207Z,66.68
2023-02-16T09:58:29.542Z,66.57
2023-02-16T10:01:07.544Z,65.96
2023-02-16T10:03:50.196Z,65.57
2023-02-16T10:06:23.891Z,65.26
2023-02-16T10:08:55.702Z,65.20
2023-02-16T10:11:48.928Z,64.77
2023-02-16T10:14:36.440Z,64.88
2023-02-16T10:17:28.381Z,64.60
2023-02-16T10:19:59.752Z,64.43
2023-02-16T10:22:27.553Z,65.90
2023-02-16T10:24:55.534Z,64.42
2023-02-16T10:27:26.887Z,64.02
2023-02-16T10:29:55.125Z,64.31
2023-02-16T10:32:29.423Z,64.03
2023-02-16T10:35:10.916Z,63.55
2023-02-16T10:38:06.288Z,63.11
2023-02-16T10:40:40.010Z,63.69
2023-02-16T10:43:18.297Z,63.65
2023-02-16T10:45:59.352Z,62.75
2023-02-16T10:48:27.900Z,62.68
2023-02-16T10:50:56.611Z,62.67
2023-02-16T10:53:37.519Z,62.06
2023-02-16T10:56:34.549Z,62.05
2023-02-16T10:59:06.107Z,62.12
2023-02-16T11:01:37.523Z,62.17
2023-02-16T11:04:06.343Z,61.89
2023-02-16T11:06:36.502Z,61.86
2023-02-16T11:09:06.623Z,61.91
2023-02-16T11:11:38.866Z,61.29
2023-02-16T11:14:32.846Z,60.57
2023-02-16T11:17:11.028Z,60.53
2023-02-16T11:19:48.609Z,60.87
2023-02-16T11:22:35.328Z,61.15
2023-02-16T11:25:32.842Z,60.41
2023-02-16T11:28:05.724Z,60.24
2023-02-16T11:30:33.709Z,60.24
2023-02-16T11:33:07.334Z,59.97
2023-02-16T11:35:42.517Z,59.70
2023-02-16T11:38:43.421Z,59.90
2023-02-16T11:41:11.248Z,60.00
2023-02-16T11:43:41.924Z,60.23
2023-02-16T11:46:17.804Z,59.63
2023-02-16T11:48:46.211Z,59.55
2023-02-16T11:51:19.317Z,59.31
2023-02-16T11:53:58.845Z,59.37
2023-02-16T11:56:28.332Z,58.43
2023-02-16T11:59:15.223Z,58.27
2023-02-16T12:02:01.956Z,58.47
2023-02-16T12:04:39.104Z,58.88
2023-02-16T12:07:27.286Z,58.71
2023-02-16T12:09:58.098Z,58.82
2023-02-16T12:12:53.651Z,59.04
2023-02-16T12:15:44.907Z,58.78
2023-02-16T12:18:18.936Z,58.62
2023-02-16T12:21:02.742Z,58.38
2023-02-16T12:23:37.123Z,58.00
2023-02-16T12:26:23.530Z,57.82
2023-02-16T12:29:08.549Z,57.56
2023-02-16T12:31:53.336Z,56.97
2023-02-16T12:34:21.313Z,57.46
2023-02-16T12:36:49.387Z,57.66
2023-02-16T12:39:26.615Z,57.89
2023-02-16T12:42:13.590Z,57.40
2023-02-16T12:44:52.387Z,57.35
2023-02-16T12:47:27.386Z,57.10
2023-02-16T12:49:58.460Z,57.49
2023-02-16T12:52:38.244Z,57.95
2023-02-16T12:55:20.735Z,58.31
2023-02-16T12:58:08.369Z,58.21
2023-02-16T13:00:36.189Z,57.81
2023-02-16T13:03:29.322Z,57.22
2023-02-16T13:06:06.325Z,57.69
2023-02-16T13:08:48.373Z,58.04
2023-02-16T13:11:36.316Z,57.94
2023-02-16T13:14:06.715Z,58.15
2023-02-16T13:16:34.741Z,57.68
2023-02-16T13:19:02.709Z,57.35
2023-02-16T13:21:49.100Z,57.10
2023-02-16T13:24:37.186Z,56.68
2023-02-16T13:27:13.778Z,56.14
2023-02-16T13:30:00.401Z,55.68
2023-02-16T13:32:34.531Z,56.49
2023-02-16T13:35:30.134Z,56.25
2023-02-16T13:37:58.207Z,55.70
2023-02-16T13:40:29.001Z,55.86
2023-02-16T13:42:58.099Z,55.83
2023-02-16T13:45:27.254Z,55.55
2023-02-16T13:47:56.601Z,55.88
2023-02-16T13:50:30.130Z,56.11
2023-02-16T13:53:07.946Z,55.93
2023-02-16T13:55:37.567Z,55.85
2023-02-16T13:58:23.847Z,55.76
2023-02-16T14:00:53.114Z,56.08
2023-02-16T14:03:21.454Z,56.24
2023-02-16T14:05:54.490Z,56.29
2023-02-16T14:08:30.483Z,56.30
2023-02-16T14:11:03.775Z,56.22
2023-02-16T14:13:34.245Z,56.58
2023-02-16T14:16:22.657Z,57.04
2023-02-16T14:18:56.590Z,56.91
2023-02-16T14:21:36.721Z,56.95
2023-02-16T14:24:06.492Z,57.23
2023-02-16T14:26:51.205Z,57.45
2023-02-16T14:29:22.752Z,57.07
2023-02-16T14:31:59.727Z,56.89
2023-02-16T14:34:29.470Z,56.47
2023-02-16T14:37:29.519Z,56.58
2023-02-16T14:40:08.440Z,56.85
2023-02-16T14:42:36.718Z,56.89
2023-02-16T14:45:11.492Z,57.17
2023-02-16T14:47:42.111Z,57.36
2023-02-16T14:50:36.619Z,57.50
2023-02-16T14:53:07.390Z,58.02
2023-02-16T14:55:35.718Z,58.21
2023-02-16T14:58:12.990Z,58.28
2023-02-16T15:00:50.842Z,58.42
2023-02-16T15:03:22.238Z,58.65
2023-02-16T15:05:51.188Z,59.40
2023-02-16T15:08:22.551Z,59.98
2023-02-16T15:10:54.376Z,59.53
2023-02-16T15:13:26.795Z,59.30
2023-02-16T15:15:57.033Z,59.42
2023-02-16T15:18:27.478Z,59.50
2023-02-16T15:20:57.652Z,60.15
2023-02-16T15:23:27.009Z,60.13
2023-02-16T15:25:58.768Z,60.11
2023-02-16T15:28:31.209Z,61.19
2023-02-16T15:31:00.546Z,62.76
2023-02-16T15:33:32.618Z,61.53
2023-02-16T15:36:02.074Z,60.95
2023-02-16T15:38:31.881Z,60.69
2023-02-16T15:41:02.159Z,60.70
2023-02-16T15:43:34.740Z,60.65
2023-02-16T15:46:04.146Z,60.58
2023-02-16T15:48:33.557Z,60.53
2023-02-16T15:51:06.991Z,60.59
2023-02-16T15:53:38.101Z,60.65
2023-02-16T15:56:14.729Z,60.99
2023-02-16T15:58:42.875Z,61.03
2023-02-16T16:01:15.366Z,60.73
2023-02-16T16:03:46.564Z,60.90
2023-02-16T16:06:14.943Z,61.07
2023-02-16T16:08:43.479Z,61.18
2023-02-16T16:11:11.733Z,61.29
2023-02-16T16:13:39.821Z,61.45
2023-02-16T16:16:10.108Z,61.67
2023-02-16T16:18:44.022Z,61.92
2023-02-16T16:21:15.056Z,61.90
2023-02-16T16:23:52.823Z,62.07
2023-02-16T16:26:21.916Z,62.16
2023-02-16T16:28:49.934Z,62.20
2023-02-16T16:31:21.150Z,62.30
2023-02-16T16:33:55.015Z,62.42
2023-02-16T16:36:29.123Z,62.44
2023-02-16T16:39:10.960Z,62.56
2023-02-16T16:41:40.510Z,62.74
2023-02-16T16:44:12.118Z,62.90
2023-02-16T16:46:40.035Z,63.23
2023-02-16T16:49:14.886Z,63.11
2023-02-16T16:51:44.011Z,63.03
2023-02-16T16:54:12.646Z,63.14
2023-02-16T16:56:41.563Z,63.17
2023-02-16T16:59:09.750Z,63.43
2023-02-16T17:01:37.586Z,63.20
2023-02-16T17:04:05.480Z,63.07
2023-02-16T17:06:33.663Z,63.04
2023-02-16T17:09:02.313Z,63.26
2023-02-16T17:11:32.484Z,64.09
2023-02-16T17:14:08.399Z,64.27
2023-02-16T17:16:41.278Z,63.95
2023-02-16T17:19:12.369Z,63.76
2023-02-16T17:21:40.243Z,63.79
2023-02-16T17:24:08.025Z,63.83
2023-02-16T17:26:36.707Z,64.08
2023-02-16T17:29:04.834Z,64.12
2023-02-16T17:31:32.968Z,64.07
2023-02-16T17:34:00.825Z,64.15
2023-02-16T17:36:29.186Z,64.32
2023-02-16T17:38:57.053Z,64.41
2023-02-16T17:41:26.667Z,64.74
2023-02-16T17:43:58.054Z,64.83
2023-02-16T17:46:27.116Z,64.80
2023-02-16T17:48:55.346Z,64.68
2023-02-16T17:51:24.235Z,64.37
2023-02-16T17:53:52.267Z,64.05
2023-02-16T17:56:21.264Z,64.44
2023-02-16T17:58:49.195Z,64.63
2023-02-16T18:01:18.210Z,64.61
2023-02-16T18:03:46.441Z,64.65
2023-02-16T18:06:15.480Z,64.62
2023-02-16T18:08:44.097Z,64.51
2023-02-16T18:11:12.015Z,64.51
2023-02-16T18:13:40.251Z,64.57
2023-02-16T18:16:10.996Z,64.51
2023-02-16T18:18:39.380Z,64.59
2023-02-16T18:21:07.900Z,64.63
2023-02-16T18:23:35.653Z,64.65
2023-02-16T18:26:04.243Z,64.67
2023-02-16T18:28:33.750Z,64.89
2023-02-16T18:31:05.064Z,64.79
2023-02-16T18:33:34.702Z,64.72
2023-02-16T18:36:03.205Z,64.87
2023-02-16T18:38:31.279Z,65.04
2023-02-16T18:40:59.332Z,65.01
2023-02-16T18:43:27.974Z,65.14
2023-02-16T18:45:55.753Z,65.32
2023-02-16T18:48:23.959Z,65.61
2023-02-16T18:50:51.807Z,65.70
2023-02-16T18:53:19.563Z,65.93
2023-02-16T18:55:47.777Z,66.12
2023-02-16T18:58:16.090Z,66.18
2023-02-16T19:00:44.145Z,66.44
2023-02-16T19:03:12.306Z,66.78
2023-02-16T19:05:40.073Z,66.95
2023-02-16T19:08:07.910Z,67.22
2023-02-16T19:10:35.802Z,67.19
2023-02-16T19:13:05.143Z,67.37
2023-02-16T19:15:36.465Z,67.88
2023-02-16T19:18:04.759Z,67.68
2023-02-16T19:20:32.505Z,67.85
2023-02-16T19:23:00.428Z,67.81
2023-02-16T19:25:29.323Z,67.80
2023-02-16T19:27:57.292Z,67.78
2023-02-16T19:30:25.286Z,67.86
2023-02-16T19:32:53.395Z,67.93
2023-02-16T19:35:21.649Z,67.97
2023-02-16T19:37:49.557Z,68.08
2023-02-16T19:40:19.067Z,68.11
2023-02-16T19:42:47.293Z,68.17
2023-02-16T19:45:15.248Z,68.20
2023-02-16T19:47:43.036Z,68.30
2023-02-16T19:50:11.457Z,68.42
2023-02-16T19:52:39.193Z,68.51
2023-02-16T19:55:07.086Z,68.72
2023-02-16T19:57:35.413Z,69.18
2023-02-16T20:00:05.663Z,69.28
2023-02-16T20:02:39.720Z,69.32
2023-02-16T20:05:09.660Z,69.53
2023-02-16T20:07:37.436Z,69.68
2023-02-16T20:10:05.896Z,69.86
2023-02-16T20:12:33.746Z,69.89
2023-02-16T20:15:01.630Z,70.03
2023-02-16T20:17:29.413Z,69.95
2023-02-16T20:19:57.942Z,69.84
2023-02-16T20:22:26.844Z,69.87
2023-02-16T20:24:54.855Z,69.75
2023-02-16T20:27:22.746Z,69.65
2023-02-16T20:29:50.602Z,69.62
2023-02-16T20:32:18.731Z,69.58
2023-02-16T20:34:46.678Z,69.50
2023-02-16T20:37:14.573Z,69.48
2023-02-16T20:39:42.524Z,69.43
2023-02-16T20:42:10.631Z,69.46
2023-02-16T20:44:38.429Z,69.55
2023-02-16T20:47:08.104Z,69.63
2023-02-16T20:49:36.556Z,69.72
2023-02-16T20:52:04.838Z,69.84
2023-02-16T20:54:33.070Z,69.92
2023-02-16T20:57:00.870Z,70.05
2023-02-16T20:59:28.616Z,70.02
2023-02-16T21:01:56.771Z,70.03
2023-02-16T21:04:24.618Z,70.06
2023-02-16T21:06:52.673Z,70.06
2023-02-16T21:09:20.433Z,70.23
2023-02-16T21:11:48.400Z,70.50
2023-02-16T21:14:17.062Z,70.60
2023-02-16T21:16:44.864Z,70.72
2023-02-16T21:19:22.464Z,70.77
2023-02-16T21:21:51.662Z,70.96
2023-02-16T21:24:19.711Z,70.99
2023-02-16T21:26:48.047Z,71.11
2023-02-16T21:29:16.063Z,71.18
2023-02-16T21:31:44.164Z,71.21
2023-02-16T21:34:12.438Z,71.13
2023-02-16T21:36:40.222Z,70.99
2023-02-16T21:39:07.991Z,70.88
2023-02-16T21:41:36.041Z,70.79
2023-02-16T21:44:11.790Z,70.73
2023-02-16T21:46:44.021Z,70.68
2023-02-16T21:49:16.422Z,70.86
2023-02-16T21:51:45.181Z,70.87
2023-02-16T21:54:14.909Z,70.93
2023-02-16T21:56:44.130Z,70.93
2023-02-16T21:59:16.448Z,70.96
2023-02-16T22:01:46.218Z,71.10
2023-02-16T22:04:15.242Z,71.19
2023-02-16T22:06:45.852Z,71.40
2023-02-16T22:09:17.358Z,71.56
2023-02-16T22:11:46.150Z,71.91
2023-02-16T22:14:14.406Z,71.92
2023-02-16T22:16:44.140Z,71.82
2023-02-16T22:19:13.450Z,71.99
2023-02-16T22:21:42.290Z,72.00
2023-02-16T22:24:14.046Z,71.93
2023-02-16T22:26:42.580Z,71.84
2023-02-16T22:29:10.620Z,71.75
2023-02-16T22:31:38.960Z,71.75
2023-02-16T22:34:08.866Z,71.65
2023-02-16T22:36:37.681Z,71.59
2023-02-16T22:39:05.581Z,71.58
2023-02-16T22:41:34.430Z,71.48
2023-02-16T22:44:02.624Z,71.70
2023-02-16T22:46:30.481Z,71.77
2023-02-16T22:48:59.240Z,71.96
2023-02-16T22:51:29.320Z,72.01
2023-02-16T22:53:58.338Z,72.00
2023-02-16T22:56:27.177Z,71.94
2023-02-16T22:58:57.561Z,71.87
2023-02-16T23:01:26.748Z,71.75
2023-02-16T23:03:57.798Z,71.80
2023-02-16T23:06:36.596Z,71.88
2023-02-16T23:09:06.553Z,71.91
2023-02-16T23:11:35.087Z,71.96
2023-02-16T23:14:03.315Z,72.00
2023-02-16T23:16:32.047Z,72.01
2023-02-16T23:19:00.311Z,72.04
2023-02-16T23:21:29.380Z,72.15
2023-02-16T23:23:57.233Z,72.10
2023-02-16T23:26:26.294Z,72.11
2023-02-16T23:28:55.184Z,72.07
2023-02-16T23:31:23.274Z,72.05
2023-02-16T23:33:51.314Z,72.02
2023-02-16T23:36:19.087Z,71.97
2023-02-16T23:38:46.923Z,72.04
2023-02-16T23:41:14.991Z,72.26
2023-02-16T23:43:43.099Z,72.50
2023-02-16T23:46:11.410Z,72.70
2023-02-16T23:48:39.420Z,72.80
2023-02-16T23:51:07.647Z,72.79
2023-02-16T23:53:35.429Z,72.74
2023-02-16T23:56:07.957Z,72.64
2023-02-16T23:58:37.321Z,72.52
